Time;durP1;ratioP1;P1;durP2;ratioP2;P2;SDS_P1;SDS_P2;PMS_P1;PMS_P2;Temp;Humidity;BMP_temperature;BMP_pressure;BME280_temperature;BME280_humidity;BME280_pressure;Samples;Min_cycle;Max_cycle;Signal;HPM_P1;HPM_P2
2021/09/08 00:00:25;;;;;;;21.40;14.67;;;;;;;;;;5117361;28;20510;-59
2021/09/08 00:02:52;;;;;;;13.00;10.00;;;;;;;;;;5117149;28;20455;-52
2021/09/08 00:05:19;;;;;;;22.10;12.20;;;;;;;;;;5116953;28;20444;-52
2021/09/08 00:07:47;;;;;;;24.47;16.73;;;;;;;;;;5117072;28;20452;-52
2021/09/08 00:10:21;;;;;;;44.47;31.93;;;;;;;;;;5116557;28;20452;-54
2021/09/08 00:12:48;;;;;;;19.73;14.40;;;;;;;;;;5117409;28;20442;-46
2021/09/08 00:15:17;;;;;;;36.87;27.20;;;;;;;;;;5116794;28;20462;-50
2021/09/08 00:20:48;;;;;;;21.63;11.50;;;;;;;;;;5116881;28;20425;-52
2021/09/08 00:23:16;;;;;;;14.90;11.13;;;;;;;;;;5116827;28;20498;-54
2021/09/08 00:26:05;;;;;;;24.20;17.67;;;;;;;;;;5117290;28;20450;-53
2021/09/08 00:28:33;;;;;;;20.93;13.50;;;;;;;;;;5117223;28;20454;-49
2021/09/08 00:31:04;;;;;;;18.70;12.87;;;;;;;;;;5117200;28;20454;-57
2021/09/08 00:33:53;;;;;;;23.90;15.90;;;;;;;;;;5116743;28;20473;-52
2021/09/08 00:36:21;;;;;;;35.63;27.50;;;;;;;;;;5115430;28;20499;-59
2021/09/08 00:38:48;;;;;;;34.67;27.47;;;;;;;;;;5116535;28;20459;-56
2021/09/08 00:41:34;;;;;;;24.33;16.27;;;;;;;;;;5117049;28;20595;-49
2021/09/08 00:44:09;;;;;;;22.80;15.80;;;;;;;;;;5116687;28;20503;-52
2021/09/08 00:46:38;;;;;;;25.33;16.77;;;;;;;;;;5117013;28;20436;-53
2021/09/08 00:49:05;;;;;;;51.33;39.90;;;;;;;;;;5116858;28;20451;-48
2021/09/08 00:51:33;;;;;;;57.00;40.97;;;;;;;;;;5116629;28;20458;-49
2021/09/08 00:54:04;;;;;;;65.93;40.57;;;;;;;;;;5116382;28;20463;-49
2021/09/08 00:56:34;;;;;;;64.57;41.60;;;;;;;;;;5116490;28;20439;-53
2021/09/08 00:59:01;;;;;;;73.33;53.57;;;;;;;;;;5116991;28;20495;-49
2021/09/08 01:01:48;;;;;;;34.20;23.70;;;;;;;;;;5116172;28;20442;-55
2021/09/08 01:04:15;;;;;;;28.20;17.07;;;;;;;;;;5096546;28;20443;-54
2021/09/08 01:06:43;;;;;;;18.70;12.37;;;;;;;;;;5096698;28;20460;-53
2021/09/08 01:09:28;;;;;;;27.70;21.20;;;;;;;;;;5100256;28;20480;-52
2021/09/08 01:11:57;;;;;;;51.27;34.97;;;;;;;;;;5117672;28;20471;-53
2021/09/08 01:14:25;;;;;;;20.20;15.43;;;;;;;;;;5116741;28;20449;-58
2021/09/08 01:17:00;;;;;;;19.73;13.63;;;;;;;;;;5116865;28;20424;-51
2021/09/08 01:19:28;;;;;;;23.83;18.30;;;;;;;;;;5116843;28;20582;-59
2021/09/08 01:21:55;;;;;;;19.00;10.93;;;;;;;;;;5118179;28;20493;-51
2021/09/08 01:24:43;;;;;;;13.90;9.93;;;;;;;;;;5120306;28;20486;-48
2021/09/08 01:27:11;;;;;;;16.00;10.33;;;;;;;;;;5120414;28;20527;-55
2021/09/08 01:29:38;;;;;;;16.07;12.60;;;;;;;;;;5120471;28;20562;-51
2021/09/08 01:35:09;;;;;;;13.37;10.10;;;;;;;;;;5118726;28;20473;-56
2021/09/08 01:37:36;;;;;;;18.10;12.40;;;;;;;;;;5120325;28;20459;-48
2021/09/08 01:40:21;;;;;;;19.67;13.80;;;;;;;;;;5120257;28;20416;-56
2021/09/08 01:42:48;;;;;;;24.90;12.33;;;;;;;;;;5120316;28;20486;-55
2021/09/08 01:45:16;;;;;;;16.00;11.17;;;;;;;;;;5119971;28;20434;-53
2021/09/08 01:48:13;;;;;;;18.27;11.23;;;;;;;;;;5119669;28;20463;-55
2021/09/08 01:50:41;;;;;;;18.13;11.90;;;;;;;;;;5120070;28;20439;-53
2021/09/08 01:53:08;;;;;;;21.10;12.40;;;;;;;;;;5119712;28;20670;-56
2021/09/08 01:55:37;;;;;;;21.23;11.90;;;;;;;;;;5119940;28;20465;-52
2021/09/08 01:58:05;;;;;;;20.13;12.13;;;;;;;;;;5119746;28;20431;-51
2021/09/08 02:00:59;;;;;;;23.50;16.37;;;;;;;;;;5119359;28;20423;-58
2021/09/08 02:03:27;;;;;;;28.47;20.70;;;;;;;;;;5119671;28;20490;-50
2021/09/08 02:05:54;;;;;;;26.93;21.17;;;;;;;;;;5119934;28;20474;-49
2021/09/08 02:08:35;;;;;;;17.53;11.03;;;;;;;;;;5119529;28;20450;-50
2021/09/08 02:11:04;;;;;;;26.43;17.70;;;;;;;;;;5119407;28;20453;-53
2021/09/08 02:13:31;;;;;;;18.83;14.30;;;;;;;;;;5119731;28;20507;-54
2021/09/08 02:15:58;;;;;;;22.60;13.30;;;;;;;;;;5119674;28;20435;-49
2021/09/08 02:18:26;;;;;;;19.73;13.67;;;;;;;;;;5119130;28;20436;-51
2021/09/08 02:20:53;;;;;;;16.20;11.00;;;;;;;;;;5119789;28;20500;-55
2021/09/08 02:23:23;;;;;;;18.70;14.00;;;;;;;;;;5119808;28;20475;-54
2021/09/08 02:25:50;;;;;;;24.53;17.50;;;;;;;;;;5119940;28;20451;-53
2021/09/08 02:28:20;;;;;;;63.90;49.63;;;;;;;;;;5119463;28;20462;-47
2021/09/08 02:31:18;;;;;;;28.47;19.17;;;;;;;;;;5118980;28;20463;-51
2021/09/08 02:33:46;;;;;;;19.37;12.23;;;;;;;;;;5118096;28;20444;-48
2021/09/08 02:36:14;;;;;;;31.07;21.90;;;;;;;;;;5119255;28;20475;-55
2021/09/08 02:39:01;;;;;;;19.83;12.87;;;;;;;;;;5134161;28;20487;-51
2021/09/08 02:41:28;;;;;;;16.27;11.60;;;;;;;;;;5139625;28;20524;-55
2021/09/08 02:43:58;;;;;;;12.53;9.80;;;;;;;;;;5138921;28;20496;-53
2021/09/08 02:46:26;;;;;;;16.00;10.53;;;;;;;;;;5139263;28;20465;-52
2021/09/08 02:48:53;;;;;;;12.13;9.70;;;;;;;;;;5139135;28;20450;-50
2021/09/08 02:54:24;;;;;;;14.00;9.50;;;;;;;;;;5118628;28;20429;-53
2021/09/08 02:56:52;;;;;;;13.70;8.87;;;;;;;;;;5118701;28;20455;-51
2021/09/08 02:59:23;;;;;;;13.97;10.33;;;;;;;;;;5118595;28;20463;-50
2021/09/08 03:01:50;;;;;;;13.77;9.33;;;;;;;;;;5118429;28;20469;-53
2021/09/08 03:04:18;;;;;;;15.43;9.50;;;;;;;;;;5118679;28;20538;-50
2021/09/08 03:07:02;;;;;;;15.87;10.53;;;;;;;;;;5118748;28;20456;-54
2021/09/08 03:09:29;;;;;;;15.40;10.23;;;;;;;;;;5118845;28;20443;-54
2021/09/08 03:11:57;;;;;;;13.10;9.73;;;;;;;;;;5118585;28;20479;-52
2021/09/08 03:14:26;;;;;;;13.63;10.30;;;;;;;;;;5118134;28;20459;-50
2021/09/08 03:16:53;;;;;;;15.83;10.13;;;;;;;;;;5118413;28;20739;-53
2021/09/08 03:19:47;;;;;;;17.03;10.13;;;;;;;;;;5118132;28;20466;-47
2021/09/08 03:22:15;;;;;;;15.20;10.50;;;;;;;;;;5121825;28;20438;-55
2021/09/08 03:24:42;;;;;;;14.00;10.17;;;;;;;;;;5139091;28;20458;-56
2021/09/08 03:30:15;;;;;;;14.77;10.13;;;;;;;;;;5133625;28;20473;-53
2021/09/08 03:32:43;;;;;;;13.33;9.60;;;;;;;;;;5118094;28;20408;-55
2021/09/08 03:35:17;;;;;;;16.00;9.07;;;;;;;;;;5117924;28;20432;-52
2021/09/08 03:37:44;;;;;;;13.47;10.17;;;;;;;;;;5117862;28;20862;-57
2021/09/08 03:40:16;;;;;;;13.80;10.00;;;;;;;;;;5117800;28;20444;-51
2021/09/08 03:45:48;;;;;;;17.57;11.27;;;;;;;;;;5114643;28;20473;-54
2021/09/08 03:48:16;;;;;;;14.23;10.43;;;;;;;;;;5117437;28;20443;-57
2021/09/08 03:51:04;;;;;;;17.13;13.40;;;;;;;;;;5117294;28;20566;-55
2021/09/08 03:53:31;;;;;;;12.60;10.10;;;;;;;;;;5115163;28;20562;-50
2021/09/08 03:55:59;;;;;;;15.93;10.33;;;;;;;;;;5116862;28;20452;-50
2021/09/08 03:58:37;;;;;;;14.93;11.03;;;;;;;;;;5116714;28;20588;-53
2021/09/08 04:01:06;;;;;;;14.47;10.07;;;;;;;;;;5117079;28;20443;-50
2021/09/08 04:03:33;;;;;;;16.80;10.53;;;;;;;;;;5114542;28;20478;-57
2021/09/08 04:09:15;;;;;;;31.00;26.13;;;;;;;;;;5115643;28;20500;-55
2021/09/08 04:11:42;;;;;;;20.47;13.87;;;;;;;;;;5117514;28;20440;-54
2021/09/08 04:14:14;;;;;;;17.90;11.10;;;;;;;;;;5117533;28;20463;-54
2021/09/08 04:16:44;;;;;;;17.80;10.73;;;;;;;;;;5117123;28;20481;-58
2021/09/08 04:19:11;;;;;;;15.80;10.80;;;;;;;;;;5117238;28;20480;-58
2021/09/08 04:21:38;;;;;;;17.20;9.83;;;;;;;;;;5116967;28;20517;-52
2021/09/08 04:24:06;;;;;;;13.47;10.60;;;;;;;;;;5116693;28;20452;-54
2021/09/08 04:26:59;;;;;;;13.53;9.67;;;;;;;;;;5114545;28;20435;-53
2021/09/08 04:29:26;;;;;;;17.23;11.43;;;;;;;;;;5096493;28;20455;-56
2021/09/08 04:31:58;;;;;;;13.67;10.13;;;;;;;;;;5109255;28;20476;-53
2021/09/08 04:37:32;;;;;;;14.53;10.70;;;;;;;;;;5116474;28;20429;-50
2021/09/08 04:39:59;;;;;;;17.20;11.53;;;;;;;;;;5116318;28;20593;-54
2021/09/08 04:42:34;;;;;;;16.93;10.40;;;;;;;;;;5116606;28;20474;-55
2021/09/08 04:45:04;;;;;;;14.80;11.40;;;;;;;;;;5116846;28;20494;-55
2021/09/08 04:47:37;;;;;;;18.27;11.37;;;;;;;;;;5117002;28;20432;-53
2021/09/08 04:53:10;;;;;;;19.97;11.90;;;;;;;;;;5109987;28;20415;-54
2021/09/08 04:55:59;;;;;;;19.80;12.77;;;;;;;;;;5111435;28;20452;-52
2021/09/08 04:58:31;;;;;;;17.90;11.43;;;;;;;;;;5100426;28;20471;-53
2021/09/08 05:01:22;;;;;;;16.73;10.73;;;;;;;;;;5111528;28;20439;-57
2021/09/08 05:03:51;;;;;;;16.43;10.97;;;;;;;;;;5120451;28;20486;-54
2021/09/08 05:06:28;;;;;;;17.00;12.37;;;;;;;;;;5117853;28;20466;-55
2021/09/08 05:09:15;;;;;;;16.93;12.20;;;;;;;;;;5119927;28;20458;-54
2021/09/08 05:11:43;;;;;;;17.10;10.47;;;;;;;;;;5119773;28;20438;-55
2021/09/08 05:14:27;;;;;;;20.13;12.00;;;;;;;;;;5120585;28;20435;-56
2021/09/08 05:20:02;;;;;;;13.50;10.80;;;;;;;;;;5111962;28;20485;-51
2021/09/08 05:22:30;;;;;;;16.20;10.93;;;;;;;;;;5099438;28;20521;-55
2021/09/08 05:25:06;;;;;;;17.57;12.50;;;;;;;;;;5081944;28;20494;-57
2021/09/08 05:27:55;;;;;;;16.00;11.13;;;;;;;;;;5111809;28;20513;-54
2021/09/08 05:30:25;;;;;;;13.87;11.10;;;;;;;;;;5119458;28;20449;-54
2021/09/08 05:33:04;;;;;;;18.17;11.67;;;;;;;;;;5119912;28;20446;-49
2021/09/08 05:35:33;;;;;;;14.93;10.30;;;;;;;;;;5120150;28;20458;-54
2021/09/08 05:38:01;;;;;;;19.63;11.80;;;;;;;;;;5119316;28;20435;-53
2021/09/08 05:40:29;;;;;;;17.90;9.83;;;;;;;;;;5119224;28;20436;-57
2021/09/08 05:43:06;;;;;;;16.93;10.90;;;;;;;;;;5118466;28;20459;-53
2021/09/08 05:45:34;;;;;;;13.60;9.90;;;;;;;;;;5098676;28;20443;-55
2021/09/08 05:48:11;;;;;;;15.73;10.80;;;;;;;;;;5103727;28;20482;-52
2021/09/08 05:50:40;;;;;;;16.50;11.63;;;;;;;;;;5118764;28;20439;-54
2021/09/08 05:53:08;;;;;;;18.73;12.43;;;;;;;;;;5119124;28;20481;-51
2021/09/08 05:55:35;;;;;;;17.70;12.20;;;;;;;;;;5116836;28;20479;-59
2021/09/08 05:58:06;;;;;;;20.33;11.10;;;;;;;;;;5119588;28;20435;-55
2021/09/08 06:00:54;;;;;;;18.30;12.07;;;;;;;;;;5119178;28;20493;-57
2021/09/08 06:03:24;;;;;;;18.90;10.27;;;;;;;;;;5117915;28;20471;-51
2021/09/08 06:05:53;;;;;;;16.63;10.23;;;;;;;;;;5118860;28;20457;-53
2021/09/08 06:08:37;;;;;;;16.03;10.30;;;;;;;;;;5117855;28;20450;-57
2021/09/08 06:11:10;;;;;;;15.80;11.60;;;;;;;;;;5118616;28;20460;-54
2021/09/08 06:13:41;;;;;;;12.70;10.50;;;;;;;;;;5116621;28;20508;-56
2021/09/08 06:16:13;;;;;;;18.40;10.73;;;;;;;;;;5118640;28;20439;-56
2021/09/08 06:18:44;;;;;;;13.80;10.30;;;;;;;;;;5112627;28;20451;-54
2021/09/08 06:21:13;;;;;;;13.87;10.27;;;;;;;;;;5098272;28;20440;-56
2021/09/08 06:23:40;;;;;;;22.70;11.27;;;;;;;;;;5098154;28;20472;-51
2021/09/08 06:26:07;;;;;;;14.90;10.77;;;;;;;;;;5098425;28;20470;-55
2021/09/08 06:29:11;;;;;;;16.73;9.47;;;;;;;;;;5108758;28;20449;-60
2021/09/08 06:31:38;;;;;;;17.07;10.43;;;;;;;;;;5110565;28;20501;-59
2021/09/08 06:34:06;;;;;;;19.50;10.80;;;;;;;;;;5118290;28;20491;-57
2021/09/08 06:36:41;;;;;;;16.10;10.90;;;;;;;;;;5099665;28;20456;-55
2021/09/08 06:39:09;;;;;;;12.70;9.80;;;;;;;;;;5098253;28;20452;-52
2021/09/08 06:41:36;;;;;;;15.33;10.10;;;;;;;;;;5098258;28;20416;-49
2021/09/08 06:44:23;;;;;;;12.87;9.40;;;;;;;;;;5097948;28;20547;-47
2021/09/08 06:46:51;;;;;;;15.63;10.53;;;;;;;;;;5112244;28;20435;-51
2021/09/08 06:49:23;;;;;;;13.53;9.70;;;;;;;;;;5117128;28;20451;-53
2021/09/08 06:51:52;;;;;;;15.97;8.43;;;;;;;;;;5118057;28;20439;-53
2021/09/08 06:54:25;;;;;;;16.20;11.57;;;;;;;;;;5118088;28;20455;-53
2021/09/08 06:56:52;;;;;;;12.57;9.67;;;;;;;;;;5117715;28;20432;-47
2021/09/08 06:59:36;;;;;;;14.40;10.10;;;;;;;;;;5117092;28;20443;-53
2021/09/08 07:02:05;;;;;;;19.17;11.97;;;;;;;;;;5116950;28;20447;-51
2021/09/08 07:04:33;;;;;;;16.90;11.03;;;;;;;;;;5118118;28;20464;-52
2021/09/08 07:07:33;;;;;;;14.10;9.97;;;;;;;;;;5117872;28;20469;-47
2021/09/08 07:10:23;;;;;;;14.17;10.30;;;;;;;;;;5118193;28;20452;-55
2021/09/08 07:13:14;;;;;;;15.40;10.40;;;;;;;;;;5114361;28;20439;-56
2021/09/08 07:15:51;;;;;;;14.53;9.30;;;;;;;;;;5117322;28;20450;-55
2021/09/08 07:18:21;;;;;;;12.40;9.57;;;;;;;;;;5117696;28;20451;-51
2021/09/08 07:20:49;;;;;;;13.10;10.10;;;;;;;;;;5116803;28;20523;-57
2021/09/08 07:23:17;;;;;;;14.73;9.43;;;;;;;;;;5117005;28;20528;-52
2021/09/08 07:25:44;;;;;;;15.17;10.20;;;;;;;;;;5117301;28;20515;-54
2021/09/08 07:28:12;;;;;;;18.87;10.37;;;;;;;;;;5117113;28;20446;-52
2021/09/08 07:31:05;;;;;;;12.10;10.30;;;;;;;;;;5116611;28;20522;-51
2021/09/08 07:33:34;;;;;;;14.77;9.93;;;;;;;;;;5109488;28;20458;-54
2021/09/08 07:36:01;;;;;;;12.17;10.00;;;;;;;;;;5111461;28;20440;-52
2021/09/08 07:41:42;;;;;;;13.73;10.53;;;;;;;;;;5123837;28;20507;-54
2021/09/08 07:44:09;;;;;;;16.10;10.70;;;;;;;;;;5137001;27;20478;-51
2021/09/08 07:46:39;;;;;;;13.70;11.27;;;;;;;;;;5137739;28;20483;-49
2021/09/08 07:55:18;;;;;;;13.13;9.77;;;;;;;;;;5115159;28;20489;-49
2021/09/08 07:57:45;;;;;;;14.03;9.80;;;;;;;;;;5115844;28;20451;-55
2021/09/08 08:00:46;;;;;;;13.37;9.37;;;;;;;;;;5116124;28;20509;-53
2021/09/08 08:03:13;;;;;;;13.50;8.87;;;;;;;;;;5099769;28;20448;-52
2021/09/08 08:05:44;;;;;;;15.13;10.27;;;;;;;;;;5112223;28;20463;-54
2021/09/08 08:08:11;;;;;;;13.10;10.63;;;;;;;;;;5116335;28;20442;-52
2021/09/08 08:13:37;;;;;;;16.50;13.23;;;;;;;;;;5095638;28;20459;-56
2021/09/08 08:16:05;;;;;;;13.10;9.80;;;;;;;;;;5106941;28;20431;-60
2021/09/08 08:18:32;;;;;;;13.27;9.97;;;;;;;;;;5114952;28;20451;-51
2021/09/08 08:21:20;;;;;;;15.73;10.87;;;;;;;;;;5115775;28;20441;-55
2021/09/08 08:23:48;;;;;;;16.40;11.47;;;;;;;;;;5102807;28;20452;-57
2021/09/08 08:26:18;;;;;;;13.87;10.97;;;;;;;;;;5095448;28;20480;-53
2021/09/08 08:28:52;;;;;;;14.50;11.10;;;;;;;;;;5108850;28;20448;-54
2021/09/08 08:31:26;;;;;;;15.50;10.23;;;;;;;;;;5115271;28;20469;-58
2021/09/08 08:33:54;;;;;;;16.57;10.20;;;;;;;;;;5115138;28;20454;-53
2021/09/08 08:36:50;;;;;;;15.10;10.60;;;;;;;;;;5107325;28;20462;-53
2021/09/08 08:39:19;;;;;;;12.70;10.10;;;;;;;;;;5104045;28;20459;-54
2021/09/08 08:41:54;;;;;;;14.67;9.90;;;;;;;;;;5099923;28;20460;-51
2021/09/08 08:44:33;;;;;;;13.13;11.00;;;;;;;;;;5115999;28;20493;-56
2021/09/08 08:47:11;;;;;;;13.90;10.20;;;;;;;;;;5116330;28;20500;-57
2021/09/08 08:49:39;;;;;;;15.10;10.43;;;;;;;;;;5116076;28;20459;-56
2021/09/08 08:55:09;;;;;;;11.77;9.70;;;;;;;;;;5114138;28;20520;-56
2021/09/08 08:57:42;;;;;;;13.60;11.10;;;;;;;;;;5116242;28;20447;-50
2021/09/08 09:00:15;;;;;;;13.33;10.07;;;;;;;;;;5113446;28;20483;-53
2021/09/08 09:02:47;;;;;;;18.73;9.57;;;;;;;;;;5108487;28;20520;-51
2021/09/08 09:08:34;;;;;;;14.47;10.10;;;;;;;;;;5097349;28;20506;-52
2021/09/08 09:11:06;;;;;;;17.10;10.33;;;;;;;;;;5097688;28;20487;-52
2021/09/08 09:13:52;;;;;;;13.27;10.23;;;;;;;;;;5115809;28;20419;-58
2021/09/08 09:16:20;;;;;;;11.77;9.10;;;;;;;;;;5097274;28;20448;-55
2021/09/08 09:18:47;;;;;;;13.70;9.73;;;;;;;;;;5094625;28;20455;-50
2021/09/08 09:21:18;;;;;;;17.20;10.03;;;;;;;;;;5094758;28;20460;-54
2021/09/08 09:23:46;;;;;;;15.17;10.27;;;;;;;;;;5094976;28;20576;-46
2021/09/08 09:26:21;;;;;;;13.37;9.23;;;;;;;;;;5094909;28;20464;-51
2021/09/08 09:28:49;;;;;;;11.23;8.77;;;;;;;;;;5094354;28;20532;-53
2021/09/08 09:31:22;;;;;;;15.43;9.97;;;;;;;;;;5110723;28;20503;-48
2021/09/08 09:33:54;;;;;;;13.10;10.20;;;;;;;;;;5115397;28;20490;-53
2021/09/08 09:36:22;;;;;;;16.10;9.80;;;;;;;;;;5114872;28;20439;-49
2021/09/08 09:45:05;;;;;;;12.33;9.77;;;;;;;;;;4903513;27;6201436;-55
2021/09/08 09:47:35;;;;;;;14.10;11.00;;;;;;;;;;5113157;28;20202;-51
2021/09/08 09:50:03;;;;;;;14.03;11.13;;;;;;;;;;5113149;28;20432;-58
2021/09/08 09:52:30;;;;;;;15.30;11.10;;;;;;;;;;5110449;28;20470;-51
2021/09/08 09:55:03;;;;;;;14.40;10.07;;;;;;;;;;5113365;28;20451;-50
2021/09/08 10:00:42;;;;;;;15.33;9.30;;;;;;;;;;5112545;28;20423;-49
2021/09/08 10:03:11;;;;;;;14.20;9.00;;;;;;;;;;5112303;28;20482;-55
2021/09/08 10:05:39;;;;;;;14.03;9.10;;;;;;;;;;5113466;28;20436;-51
2021/09/08 10:08:08;;;;;;;14.47;10.37;;;;;;;;;;5113218;28;20451;-51
2021/09/08 10:10:44;;;;;;;12.27;9.93;;;;;;;;;;5113002;28;20440;-56
2021/09/08 10:13:16;;;;;;;14.30;10.13;;;;;;;;;;5112628;28;20520;-58
2021/09/08 10:15:53;;;;;;;11.03;8.60;;;;;;;;;;5112181;28;20493;-55
2021/09/08 10:18:51;;;;;;;16.37;9.30;;;;;;;;;;5101754;28;20447;-48
2021/09/08 10:21:26;;;;;;;13.33;10.30;;;;;;;;;;5092338;28;20480;-51
2021/09/08 10:23:59;;;;;;;14.27;10.13;;;;;;;;;;5107279;28;20483;-52
2021/09/08 10:30:07;;;;;;;15.50;10.60;;;;;;;;;;5101252;28;20497;-56
2021/09/08 10:36:00;;;;;;;12.17;8.70;;;;;;;;;;5109717;28;20471;-51
2021/09/08 10:38:29;;;;;;;12.83;10.40;;;;;;;;;;5113016;28;20501;-57
2021/09/08 10:41:12;;;;;;;13.23;9.70;;;;;;;;;;5112064;28;20446;-56
2021/09/08 10:43:40;;;;;;;14.20;9.67;;;;;;;;;;5112632;28;20543;-54
2021/09/08 10:46:09;;;;;;;12.67;10.83;;;;;;;;;;5112339;28;20450;-59
2021/09/08 10:48:43;;;;;;;12.27;9.60;;;;;;;;;;5111705;28;20439;-50
2021/09/08 10:51:12;;;;;;;13.13;9.53;;;;;;;;;;5110120;28;20479;-55
2021/09/08 10:53:45;;;;;;;10.83;8.30;;;;;;;;;;5112400;28;20450;-50
2021/09/08 10:56:40;;;;;;;12.70;9.77;;;;;;;;;;5099006;28;20494;-55
2021/09/08 10:59:10;;;;;;;10.83;9.07;;;;;;;;;;5096352;28;20494;-55
2021/09/08 11:01:40;;;;;;;10.20;8.53;;;;;;;;;;5097838;28;20463;-48
2021/09/08 11:04:17;;;;;;;11.60;9.47;;;;;;;;;;5097874;28;20535;-58
2021/09/08 11:06:49;;;;;;;12.13;8.33;;;;;;;;;;5097982;28;20467;-53
2021/09/08 11:12:24;;;;;;;8.33;7.43;;;;;;;;;;5094588;28;20497;-55
2021/09/08 11:14:53;;;;;;;11.80;10.23;;;;;;;;;;5098158;28;20444;-54
2021/09/08 11:17:32;;;;;;;14.60;9.67;;;;;;;;;;5098145;28;20455;-53
2021/09/08 11:20:03;;;;;;;10.80;9.00;;;;;;;;;;5098550;28;20529;-56
2021/09/08 11:22:33;;;;;;;9.57;7.50;;;;;;;;;;5095534;28;20483;-52
2021/09/08 11:25:05;;;;;;;10.10;8.43;;;;;;;;;;5097582;28;20472;-58
2021/09/08 11:27:34;;;;;;;10.47;8.60;;;;;;;;;;5098189;28;20444;-50
2021/09/08 11:30:05;;;;;;;10.40;8.70;;;;;;;;;;5098274;28;20468;-56
2021/09/08 11:32:48;;;;;;;11.60;9.23;;;;;;;;;;5097752;28;20444;-51
2021/09/08 11:35:16;;;;;;;10.40;9.27;;;;;;;;;;5097295;28;20452;-57
2021/09/08 11:37:45;;;;;;;12.43;8.93;;;;;;;;;;5097656;28;20495;-54
2021/09/08 11:40:17;;;;;;;12.57;9.50;;;;;;;;;;5097685;28;20432;-57
2021/09/08 11:42:46;;;;;;;10.93;9.80;;;;;;;;;;5097891;28;20499;-53
2021/09/08 11:45:59;;;;;;;14.47;10.30;;;;;;;;;;5097884;28;20479;-55
2021/09/08 11:48:30;;;;;;;10.67;8.73;;;;;;;;;;5097145;28;20436;-51
2021/09/08 11:54:04;;;;;;;15.40;11.90;;;;;;;;;;5097497;28;20415;-54
2021/09/08 11:56:41;;;;;;;12.87;11.47;;;;;;;;;;5077447;28;20942;-51
2021/09/08 12:02:25;;;;;;;11.13;9.60;;;;;;;;;;5094869;28;20537;-58
2021/09/08 12:05:00;;;;;;;11.10;8.30;;;;;;;;;;5097087;28;20543;-56
2021/09/08 12:07:52;;;;;;;11.83;10.63;;;;;;;;;;5096506;28;20503;-53
2021/09/08 12:10:23;;;;;;;12.57;9.20;;;;;;;;;;5094877;28;20506;-56
2021/09/08 12:12:58;;;;;;;19.27;17.13;;;;;;;;;;5097314;28;20519;-53
2021/09/08 12:15:35;;;;;;;9.97;8.97;;;;;;;;;;5097665;28;20463;-54
2021/09/08 12:18:16;;;;;;;12.07;9.30;;;;;;;;;;5104737;28;20483;-50
2021/09/08 12:20:46;;;;;;;11.90;9.77;;;;;;;;;;5103116;28;20485;-56
2021/09/08 12:23:30;;;;;;;13.83;8.40;;;;;;;;;;5096716;28;20452;-54
2021/09/08 12:26:11;;;;;;;10.77;8.83;;;;;;;;;;5109732;28;20470;-56
2021/09/08 12:29:01;;;;;;;10.10;8.27;;;;;;;;;;5096777;28;20440;-59
2021/09/08 12:31:29;;;;;;;12.00;8.30;;;;;;;;;;5095663;28;20498;-54
2021/09/08 12:33:58;;;;;;;12.03;8.27;;;;;;;;;;5096517;28;20461;-58
2021/09/08 12:36:31;;;;;;;10.47;8.23;;;;;;;;;;5096134;28;20462;-51
2021/09/08 12:39:12;;;;;;;10.17;8.80;;;;;;;;;;5101383;28;20451;-54
2021/09/08 12:41:55;;;;;;;10.67;9.57;;;;;;;;;;5115969;28;20455;-56
2021/09/08 12:44:27;;;;;;;11.30;8.53;;;;;;;;;;5105665;28;20533;-56
2021/09/08 12:47:19;;;;;;;11.97;8.93;;;;;;;;;;5095703;28;20467;-50
2021/09/08 12:49:51;;;;;;;10.43;7.83;;;;;;;;;;5096405;28;20464;-56
2021/09/08 12:52:19;;;;;;;9.90;8.43;;;;;;;;;;5096208;28;20436;-51
2021/09/08 12:58:01;;;;;;;9.40;6.83;;;;;;;;;;5095215;28;20426;-52
2021/09/08 13:00:32;;;;;;;16.13;9.50;;;;;;;;;;5095301;28;20440;-51
2021/09/08 13:02:59;;;;;;;10.30;8.33;;;;;;;;;;5094796;28;20551;-51
2021/09/08 13:05:27;;;;;;;10.63;8.87;;;;;;;;;;5094986;28;20484;-58
2021/09/08 13:08:28;;;;;;;10.67;8.33;;;;;;;;;;5095523;28;20448;-56
2021/09/08 13:11:01;;;;;;;8.70;7.73;;;;;;;;;;5086390;28;20539;-53
2021/09/08 13:13:34;;;;;;;11.70;7.53;;;;;;;;;;5095608;28;20428;-56
2021/09/08 13:18:56;;;;;;;12.23;8.70;;;;;;;;;;5087462;28;20496;-59
2021/09/08 13:26:57;;;;;;;9.53;7.60;;;;;;;;;;5099396;28;20471;-54
2021/09/08 13:29:29;;;;;;;10.37;8.10;;;;;;;;;;5116509;28;20446;-53
2021/09/08 13:31:59;;;;;;;12.47;7.03;;;;;;;;;;5116997;28;20451;-55
2021/09/08 13:37:31;;;;;;;9.13;7.20;;;;;;;;;;5093588;28;20495;-56
2021/09/08 13:39:58;;;;;;;9.57;7.87;;;;;;;;;;5095363;28;20466;-56
2021/09/08 13:42:40;;;;;;;9.97;8.80;;;;;;;;;;5096395;28;20459;-57
2021/09/08 13:45:09;;;;;;;10.63;8.13;;;;;;;;;;5095992;28;20476;-53
2021/09/08 13:47:36;;;;;;;11.90;8.90;;;;;;;;;;5096377;28;20456;-56
2021/09/08 13:50:25;;;;;;;10.40;8.10;;;;;;;;;;5098825;28;20471;-57
2021/09/08 13:52:53;;;;;;;8.50;6.93;;;;;;;;;;5093171;28;20485;-51
2021/09/08 13:55:21;;;;;;;10.03;8.30;;;;;;;;;;5089525;28;20514;-55
2021/09/08 14:00:42;;;;;;;11.00;8.23;;;;;;;;;;5074567;28;20440;-53
2021/09/08 14:03:44;;;;;;;9.20;6.60;;;;;;;;;;5084113;28;20450;-51
2021/09/08 14:06:16;;;;;;;9.50;7.13;;;;;;;;;;5095308;28;20463;-56
2021/09/08 14:09:08;;;;;;;18.13;7.83;;;;;;;;;;5095881;28;20464;-60
2021/09/08 14:11:39;;;;;;;9.50;6.70;;;;;;;;;;5095877;28;20440;-54
2021/09/08 14:17:08;;;;;;;8.17;6.70;;;;;;;;;;5065930;28;20495;-49
2021/09/08 14:19:38;;;;;;;9.00;6.30;;;;;;;;;;5093972;28;20484;-53
2021/09/08 14:22:11;;;;;;;8.00;6.60;;;;;;;;;;5095256;28;20494;-55
2021/09/08 14:24:39;;;;;;;10.73;8.23;;;;;;;;;;5095017;28;20471;-50
2021/09/08 14:27:07;;;;;;;9.53;7.47;;;;;;;;;;5094744;28;20455;-49
2021/09/08 14:29:58;;;;;;;10.37;6.93;;;;;;;;;;5095310;28;20440;-55
2021/09/08 14:33:06;;;;;;;8.07;6.73;;;;;;;;;;5115732;28;20462;-52
2021/09/08 14:35:37;;;;;;;13.83;7.47;;;;;;;;;;5113341;28;20444;-56
2021/09/08 14:38:05;;;;;;;8.73;6.93;;;;;;;;;;5099227;28;20440;-52
2021/09/08 14:40:40;;;;;;;9.90;7.70;;;;;;;;;;5099066;28;20831;-51
2021/09/08 14:43:22;;;;;;;8.87;5.97;;;;;;;;;;5098810;28;20541;-54
2021/09/08 14:46:04;;;;;;;11.27;7.60;;;;;;;;;;5096967;28;20507;-51
2021/09/08 14:48:48;;;;;;;11.70;6.93;;;;;;;;;;5096622;28;20455;-54
2021/09/08 14:51:17;;;;;;;14.60;9.03;;;;;;;;;;5097372;28;20518;-50
2021/09/08 14:53:53;;;;;;;8.10;6.20;;;;;;;;;;5099081;28;20515;-54
2021/09/08 14:56:21;;;;;;;11.30;7.97;;;;;;;;;;5098699;28;20482;-53
2021/09/08 14:59:17;;;;;;;22.07;10.80;;;;;;;;;;5098353;28;20460;-53
2021/09/08 15:01:44;;;;;;;8.57;6.73;;;;;;;;;;5097945;28;20486;-47
2021/09/08 15:04:17;;;;;;;8.13;6.93;;;;;;;;;;5098994;28;20456;-58
2021/09/08 15:06:50;;;;;;;10.33;7.40;;;;;;;;;;5098589;28;20665;-52
2021/09/08 15:09:20;;;;;;;9.40;7.27;;;;;;;;;;5098316;28;20456;-54
2021/09/08 15:11:48;;;;;;;8.87;7.97;;;;;;;;;;5098470;28;20475;-52
2021/09/08 15:14:16;;;;;;;10.03;7.60;;;;;;;;;;5098469;28;20456;-48
2021/09/08 15:16:45;;;;;;;11.50;9.23;;;;;;;;;;5098137;28;20493;-51
2021/09/08 15:22:25;;;;;;;11.40;7.30;;;;;;;;;;5097832;28;20431;-53
2021/09/08 15:24:53;;;;;;;8.77;7.33;;;;;;;;;;5104461;28;20502;-54
2021/09/08 15:27:55;;;;;;;12.87;8.77;;;;;;;;;;5098115;28;20456;-52
2021/09/08 15:30:25;;;;;;;10.17;8.13;;;;;;;;;;5097252;28;20532;-53
2021/09/08 15:32:55;;;;;;;8.63;7.47;;;;;;;;;;5085477;28;20465;-56
2021/09/08 15:35:27;;;;;;;9.00;7.37;;;;;;;;;;5092524;28;20455;-52
2021/09/08 15:38:10;;;;;;;8.53;7.07;;;;;;;;;;5094231;28;20525;-54
2021/09/08 15:40:40;;;;;;;18.63;8.40;;;;;;;;;;5096988;28;20519;-59
2021/09/08 15:43:17;;;;;;;9.33;8.20;;;;;;;;;;5096089;28;20534;-52
2021/09/08 15:45:53;;;;;;;8.60;7.03;;;;;;;;;;5111580;28;20525;-56
2021/09/08 15:48:22;;;;;;;8.87;7.27;;;;;;;;;;5117219;28;20455;-52
2021/09/08 15:50:51;;;;;;;9.37;7.70;;;;;;;;;;5111431;28;20471;-57
2021/09/08 15:53:36;;;;;;;11.47;8.07;;;;;;;;;;5096843;28;20450;-55
2021/09/08 15:56:11;;;;;;;8.77;7.53;;;;;;;;;;5090224;28;20444;-57
2021/09/08 15:58:47;;;;;;;11.70;8.17;;;;;;;;;;5097077;28;20467;-54
2021/09/08 16:01:51;;;;;;;9.33;8.13;;;;;;;;;;5097426;28;20440;-51
2021/09/08 16:04:30;;;;;;;13.20;9.60;;;;;;;;;;5093702;28;20478;-56
2021/09/08 16:06:57;;;;;;;12.93;8.70;;;;;;;;;;5094242;28;20495;-55
2021/09/08 16:09:28;;;;;;;10.53;7.70;;;;;;;;;;5103023;28;20936;-53
2021/09/08 16:12:07;;;;;;;10.30;7.80;;;;;;;;;;5078439;28;20479;-57
2021/09/08 16:14:34;;;;;;;11.50;8.60;;;;;;;;;;5083095;28;20450;-56
2021/09/08 16:17:03;;;;;;;10.57;7.63;;;;;;;;;;5096030;28;20444;-56
2021/09/08 16:19:36;;;;;;;9.77;7.87;;;;;;;;;;5092692;28;20446;-54
2021/09/08 16:22:04;;;;;;;10.23;8.27;;;;;;;;;;5086403;28;20453;-56
2021/09/08 16:24:37;;;;;;;9.37;7.40;;;;;;;;;;5103774;28;20498;-56
2021/09/08 16:27:23;;;;;;;11.87;8.30;;;;;;;;;;5098006;28;20452;-52
2021/09/08 16:32:37;;;;;;;9.00;8.10;;;;;;;;;;5095841;28;20482;-51
2021/09/08 16:35:06;;;;;;;10.90;7.70;;;;;;;;;;5084222;28;20537;-52
2021/09/08 16:37:34;;;;;;;11.33;7.63;;;;;;;;;;5089908;28;20455;-55